createdAt,value
2022-08-02T00:00:09.681Z,61.34
2022-08-02T00:05:15.468Z,61.14
2022-08-02T00:10:21.121Z,61.17
2022-08-02T00:15:27.451Z,61.05
2022-08-02T00:20:33.014Z,61.06
2022-08-02T00:25:55.525Z,60.99
2022-08-02T00:30:45.790Z,60.82
2022-08-02T00:35:51.443Z,60.82
2022-08-02T00:40:58.250Z,60.83
2022-08-02T00:46:04.186Z,60.63
2022-08-02T00:51:10.086Z,60.86
2022-08-02T00:56:15.961Z,60.70
2022-08-02T01:01:23.409Z,61.04
2022-08-02T01:06:30.686Z,60.92
2022-08-02T01:11:37.873Z,60.74
2022-08-02T01:16:46.451Z,60.85
2022-08-02T01:22:03.319Z,60.93
2022-08-02T01:27:27.200Z,61.02
2022-08-02T01:32:44.275Z,60.98
2022-08-02T01:38:02.192Z,61.16
2022-08-02T01:43:12.256Z,61.13
2022-08-02T01:48:20.111Z,61.18
2022-08-02T01:53:28.461Z,61.31
2022-08-02T01:58:37.075Z,61.13
2022-08-02T02:03:43.565Z,61.50
2022-08-02T02:08:51.791Z,61.53
2022-08-02T02:13:59.831Z,61.57
2022-08-02T02:19:07.311Z,61.64
2022-08-02T02:24:13.810Z,61.58
2022-08-02T02:29:23.058Z,61.87
2022-08-02T02:34:31.704Z,61.90
2022-08-02T02:39:40.016Z,62.05
2022-08-02T02:44:47.965Z,62.21
2022-08-02T02:49:55.049Z,62.36
2022-08-02T02:55:03.283Z,62.58
2022-08-02T03:00:12.424Z,62.72
2022-08-02T03:05:18.089Z,62.74
2022-08-02T03:10:23.653Z,62.82
2022-08-02T03:15:31.367Z,62.92
2022-08-02T03:20:37.056Z,62.98
2022-08-02T03:25:43.523Z,63.15
2022-08-02T03:30:49.398Z,63.26
2022-08-02T03:35:57.762Z,63.20
2022-08-02T03:41:05.677Z,63.42
2022-08-02T03:46:12.876Z,63.39
2022-08-02T03:51:19.135Z,63.44
2022-08-02T03:56:25.203Z,63.50
2022-08-02T04:01:30.942Z,63.56
2022-08-02T04:06:39.885Z,63.58
2022-08-02T04:11:44.146Z,63.56
2022-08-02T04:16:59.034Z,63.48
2022-08-02T04:22:07.517Z,63.37
2022-08-02T04:27:49.857Z,63.66
2022-08-02T04:32:23.108Z,63.58
2022-08-02T04:37:29.286Z,64.04
2022-08-02T04:42:34.848Z,64.07
2022-08-02T04:48:02.627Z,63.93
2022-08-02T04:52:47.925Z,64.07
2022-08-02T04:57:56.461Z,63.98
2022-08-02T05:03:02.335Z,63.92
2022-08-02T05:08:08.096Z,63.05
2022-08-02T05:13:13.876Z,62.98
2022-08-02T05:18:19.850Z,63.03
2022-08-02T05:23:25.535Z,62.41
2022-08-02T05:28:31.101Z,62.35
2022-08-02T05:33:37.588Z,62.04
2022-08-02T05:38:43.227Z,61.95
2022-08-02T05:43:50.459Z,62.20
2022-08-02T05:48:56.077Z,61.80
2022-08-02T05:54:10.568Z,61.76
2022-08-02T05:59:47.778Z,61.77
2022-08-02T06:05:08.397Z,61.37
2022-08-02T06:10:17.136Z,61.01
2022-08-02T06:15:22.581Z,60.60
2022-08-02T06:20:32.313Z,60.06
2022-08-02T06:25:50.529Z,60.24
2022-08-02T06:30:46.819Z,59.91
2022-08-02T06:36:16.918Z,59.84
2022-08-02T06:41:26.367Z,59.02
2022-08-02T06:47:08.346Z,59.17
2022-08-02T06:51:39.768Z,58.43
2022-08-02T06:56:46.941Z,58.35
2022-08-02T07:01:54.602Z,58.02
2022-08-02T07:07:00.220Z,57.15
2022-08-02T07:12:06.663Z,56.51
2022-08-02T07:17:12.670Z,56.91
2022-08-02T07:22:19.988Z,56.39
2022-08-02T07:27:26.383Z,55.51
2022-08-02T07:32:33.992Z,54.88
2022-08-02T07:37:53.814Z,54.09
2022-08-02T07:42:47.572Z,53.29
2022-08-02T07:47:54.173Z,52.61
2022-08-02T07:52:59.722Z,52.26
2022-08-02T07:58:06.221Z,52.06
2022-08-02T08:03:13.738Z,51.63
2022-08-02T08:08:19.297Z,51.26
2022-08-02T08:13:24.848Z,50.45
2022-08-02T08:18:30.926Z,50.46
2022-08-02T08:23:36.675Z,50.28
2022-08-02T08:28:42.122Z,49.58
2022-08-02T08:33:48.239Z,49.28
2022-08-02T08:38:54.312Z,48.28
2022-08-02T08:44:00.393Z,49.29
2022-08-02T08:49:24.010Z,48.77
2022-08-02T08:54:31.385Z,48.46
2022-08-02T08:59:39.187Z,47.51
2022-08-02T09:04:49.332Z,47.05
2022-08-02T09:09:52.781Z,47.00
2022-08-02T09:14:58.446Z,46.57
2022-08-02T09:20:10.702Z,46.07
2022-08-02T09:25:19.420Z,45.68
2022-08-02T09:30:26.445Z,45.47
2022-08-02T09:36:06.028Z,45.74
2022-08-02T09:40:45.212Z,45.26
2022-08-02T09:45:56.260Z,44.17
2022-08-02T09:51:02.082Z,44.16
2022-08-02T09:56:29.610Z,44.14
2022-08-02T10:01:16.351Z,44.62
2022-08-02T10:06:22.357Z,44.73
2022-08-02T10:11:29.505Z,44.70
2022-08-02T10:16:37.929Z,44.48
2022-08-02T10:21:55.815Z,43.77
2022-08-02T10:27:02.710Z,43.99
2022-08-02T10:32:14.354Z,44.00
2022-08-02T10:37:24.157Z,43.65
2022-08-02T10:42:50.668Z,43.30
2022-08-02T10:48:04.736Z,43.25
2022-08-02T10:53:28.319Z,42.95
2022-08-02T10:58:35.662Z,42.72
2022-08-02T11:03:43.954Z,40.90
2022-08-02T11:08:49.514Z,41.63
2022-08-02T11:14:07.973Z,41.52
2022-08-02T11:19:13.650Z,41.58
2022-08-02T11:24:36.731Z,41.38
2022-08-02T11:29:44.475Z,41.46
2022-08-02T11:34:52.357Z,40.50
2022-08-02T11:39:58.235Z,41.38
2022-08-02T11:45:05.136Z,40.36
2022-08-02T11:50:11.983Z,39.97
2022-08-02T11:55:17.998Z,40.28
2022-08-02T12:00:23.487Z,39.97
2022-08-02T12:06:05.617Z,39.20
2022-08-02T12:10:42.477Z,39.39
2022-08-02T12:15:48.884Z,38.99
2022-08-02T12:20:54.473Z,38.93
2022-08-02T12:26:07.440Z,38.79
2022-08-02T12:31:14.352Z,38.30
2022-08-02T12:36:27.983Z,38.31
2022-08-02T12:41:33.791Z,37.72
2022-08-02T12:46:42.089Z,38.13
2022-08-02T12:51:51.261Z,37.84
2022-08-02T12:56:56.196Z,37.42
2022-08-02T13:02:06.890Z,36.29
2022-08-02T13:07:12.762Z,36.25
2022-08-02T13:12:18.573Z,35.92
2022-08-02T13:17:24.411Z,35.32
2022-08-02T13:22:30.078Z,35.37
2022-08-02T13:27:38.219Z,35.63
2022-08-02T13:32:44.054Z,35.37
2022-08-02T13:37:49.642Z,35.23
2022-08-02T13:42:55.409Z,34.90
2022-08-02T13:48:05.034Z,34.89
2022-08-02T13:53:08.196Z,34.00
2022-08-02T13:58:14.291Z,33.63
2022-08-02T14:03:19.824Z,34.02
2022-08-02T14:08:25.393Z,33.16
2022-08-02T14:13:36.043Z,33.85
2022-08-02T14:18:38.952Z,33.63
2022-08-02T14:23:50.000Z,33.55
2022-08-02T14:28:51.765Z,32.32
2022-08-02T14:33:57.605Z,33.24
2022-08-02T14:39:03.171Z,32.92
2022-08-02T14:44:08.741Z,32.23
2022-08-02T14:49:16.108Z,32.37
2022-08-02T14:54:28.054Z,31.56
2022-08-02T14:59:29.687Z,32.56
2022-08-02T15:04:42.553Z,32.19
2022-08-02T15:09:42.614Z,31.76
2022-08-02T15:14:48.369Z,32.02
2022-08-02T15:19:57.651Z,32.11
2022-08-02T15:25:01.648Z,30.25
2022-08-02T15:30:09.062Z,30.78
2022-08-02T15:35:16.259Z,31.17
2022-08-02T15:40:22.861Z,30.24
2022-08-02T15:45:28.777Z,30.65
2022-08-02T15:50:34.497Z,30.65
2022-08-02T15:56:04.458Z,30.73
2022-08-02T16:00:47.467Z,30.67
2022-08-02T16:05:53.033Z,30.04
2022-08-02T16:10:58.613Z,30.53
2022-08-02T16:16:04.263Z,30.54
2022-08-02T16:21:09.938Z,29.73
2022-08-02T16:26:15.697Z,29.26
2022-08-02T16:31:21.279Z,29.69
2022-08-02T16:36:28.265Z,29.45
2022-08-02T16:41:51.701Z,29.79
2022-08-02T16:46:41.158Z,29.57
2022-08-02T16:51:48.533Z,29.82
2022-08-02T16:56:54.666Z,29.33
2022-08-02T17:02:12.014Z,30.12
2022-08-02T17:07:11.158Z,30.30
2022-08-02T17:12:16.019Z,30.42
2022-08-02T17:17:22.099Z,30.59
2022-08-02T17:22:29.504Z,30.85
2022-08-02T17:27:34.956Z,31.18
2022-08-02T17:32:45.587Z,31.51
2022-08-02T17:37:54.558Z,31.96
2022-08-02T17:42:57.411Z,32.53
2022-08-02T17:48:04.613Z,33.24
2022-08-02T17:53:10.162Z,33.88
2022-08-02T17:58:17.468Z,34.71
2022-08-02T18:03:23.033Z,35.32
2022-08-02T18:08:29.614Z,35.88
2022-08-02T18:13:37.305Z,36.40
2022-08-02T18:18:45.225Z,36.98
2022-08-02T18:23:58.873Z,37.58
2022-08-02T18:29:02.110Z,38.20
2022-08-02T18:34:08.410Z,38.63
2022-08-02T18:39:13.958Z,39.29
2022-08-02T18:44:19.934Z,39.62
2022-08-02T18:49:30.046Z,39.94
2022-08-02T18:54:34.333Z,40.31
2022-08-02T18:59:41.234Z,40.81
2022-08-02T19:04:47.825Z,41.13
2022-08-02T19:09:53.491Z,41.56
2022-08-02T19:15:00.298Z,41.84
2022-08-02T19:20:07.976Z,42.21
2022-08-02T19:30:25.853Z,42.78
2022-08-02T19:35:34.630Z,43.07
2022-08-02T19:40:44.863Z,42.42
2022-08-02T19:45:51.688Z,43.31
2022-08-02T19:50:59.473Z,43.79
2022-08-02T19:56:05.616Z,44.11
2022-08-02T20:01:14.156Z,44.44
2022-08-02T20:06:18.989Z,44.76
2022-08-02T20:11:24.946Z,44.39
2022-08-02T20:16:32.917Z,45.17
2022-08-02T20:21:42.717Z,45.51
2022-08-02T20:26:47.235Z,45.77
2022-08-02T20:31:52.629Z,46.06
2022-08-02T20:36:58.202Z,46.15
2022-08-02T20:42:14.899Z,46.35
2022-08-02T20:47:10.864Z,46.52
2022-08-02T20:52:23.273Z,46.73
2022-08-02T20:57:48.448Z,46.94
2022-08-02T21:02:31.687Z,47.20
2022-08-02T21:07:37.413Z,47.22
2022-08-02T21:12:45.348Z,47.32
2022-08-02T21:17:52.928Z,47.47
2022-08-02T21:22:58.714Z,47.62
2022-08-02T21:28:04.315Z,47.79
2022-08-02T21:33:23.231Z,47.83
2022-08-02T21:38:36.146Z,47.99
2022-08-02T21:43:35.199Z,48.07
2022-08-02T21:48:31.928Z,48.24
2022-08-02T21:53:42.474Z,48.28
2022-08-02T21:58:44.517Z,48.45
2022-08-02T22:03:55.538Z,48.45
2022-08-02T22:08:57.538Z,48.55
2022-08-02T22:14:03.358Z,48.69
2022-08-02T22:19:08.861Z,48.76
2022-08-02T22:24:19.440Z,48.87
2022-08-02T22:29:21.699Z,48.84
2022-08-02T22:34:51.377Z,49.00
2022-08-02T22:39:34.595Z,49.08
2022-08-02T22:44:40.155Z,49.12
2022-08-02T22:49:54.299Z,49.25
2022-08-02T22:54:56.088Z,49.29
2022-08-02T22:58:48.001Z,42.45
2022-08-02T23:00:04.433Z,49.46
2022-08-02T23:05:10.405Z,49.49
2022-08-02T23:10:15.851Z,49.51
2022-08-02T23:15:21.454Z,49.55
2022-08-02T23:20:27.393Z,49.65
2022-08-02T23:25:33.575Z,49.79
2022-08-02T23:30:39.141Z,49.78
2022-08-02T23:35:45.010Z,49.97
2022-08-02T23:40:50.578Z,50.07
2022-08-02T23:45:59.151Z,50.06
2022-08-02T23:51:04.780Z,50.19
2022-08-02T23:56:10.447Z,50.18
